sensor_id;sensor_type;location;lat;lon;timestamp;pressure;altitude;pressure_sealevel;temperature;humidity
71915;BME280;60387;49.994;14.660;2023-07-29T00:01:24;97184.31;;;23.55;49.84
71915;BME280;60387;49.994;14.660;2023-07-29T00:03:58;97178.78;;;23.51;49.71
71915;BME280;60387;49.994;14.660;2023-07-29T00:06:31;97174.06;;;23.45;49.77
71915;BME280;60387;49.994;14.660;2023-07-29T00:09:04;97182.75;;;23.47;49.61
71915;BME280;60387;49.994;14.660;2023-07-29T00:11:38;97179.97;;;23.47;49.97
71915;BME280;60387;49.994;14.660;2023-07-29T00:14:11;97176.44;;;23.43;50.47
71915;BME280;60387;49.994;14.660;2023-07-29T00:16:44;97180.78;;;23.44;50.54
71915;BME280;60387;49.994;14.660;2023-07-29T00:19:17;97175.69;;;23.39;50.71
71915;BME280;60387;49.994;14.660;2023-07-29T00:21:51;97183.94;;;23.42;51.19
71915;BME280;60387;49.994;14.660;2023-07-29T00:24:24;97176.84;;;23.42;51.09
71915;BME280;60387;49.994;14.660;2023-07-29T00:26:57;97174.47;;;23.40;50.62
71915;BME280;60387;49.994;14.660;2023-07-29T00:29:30;97168.97;;;23.40;51.30
71915;BME280;60387;49.994;14.660;2023-07-29T00:32:04;97168.94;;;23.44;50.77
71915;BME280;60387;49.994;14.660;2023-07-29T00:34:38;97159.06;;;23.42;50.51
71915;BME280;60387;49.994;14.660;2023-07-29T00:37:11;97165.78;;;23.45;51.12
71915;BME280;60387;49.994;14.660;2023-07-29T00:39:44;97167.75;;;23.48;52.04
71915;BME280;60387;49.994;14.660;2023-07-29T00:42:17;97170.53;;;23.48;51.45
71915;BME280;60387;49.994;14.660;2023-07-29T00:44:51;97157.84;;;23.47;51.00
71915;BME280;60387;49.994;14.660;2023-07-29T00:47:25;97162.19;;;23.51;51.04
71915;BME280;60387;49.994;14.660;2023-07-29T00:49:58;97159.84;;;23.53;52.12
71915;BME280;60387;49.994;14.660;2023-07-29T00:52:32;97154.31;;;23.53;51.41
71915;BME280;60387;49.994;14.660;2023-07-29T00:55:06;97159.03;;;23.53;50.82
71915;BME280;60387;49.994;14.660;2023-07-29T00:57:40;97166.13;;;23.57;51.20
71915;BME280;60387;49.994;14.660;2023-07-29T01:00:15;97172.47;;;23.58;50.87
71915;BME280;60387;49.994;14.660;2023-07-29T01:02:48;97178.00;;;23.58;51.03
71915;BME280;60387;49.994;14.660;2023-07-29T01:05:22;97165.75;;;23.59;50.77
71915;BME280;60387;49.994;14.660;2023-07-29T01:08:30;97169.72;;;23.54;51.10
71915;BME280;60387;49.994;14.660;2023-07-29T01:11:38;97168.91;;;23.57;50.80
71915;BME280;60387;49.994;14.660;2023-07-29T01:17:30;97170.91;;;23.50;51.54
71915;BME280;60387;49.994;14.660;2023-07-29T01:20:11;97171.28;;;23.48;51.43
71915;BME280;60387;49.994;14.660;2023-07-29T01:22:48;97175.63;;;23.46;50.67
71915;BME280;60387;49.994;14.660;2023-07-29T01:25:21;97172.09;;;23.42;51.14
71915;BME280;60387;49.994;14.660;2023-07-29T01:27:54;97174.06;;;23.38;51.34
71915;BME280;60387;49.994;14.660;2023-07-29T01:30:40;97170.91;;;23.36;51.95
71915;BME280;60387;49.994;14.660;2023-07-29T01:33:24;97157.13;;;23.22;52.23
71915;BME280;60387;49.994;14.660;2023-07-29T01:36:02;97167.78;;;23.31;51.75
71915;BME280;60387;49.994;14.660;2023-07-29T01:38:38;97167.78;;;23.31;51.91
71915;BME280;60387;49.994;14.660;2023-07-29T01:41:14;97174.88;;;23.28;51.95
71915;BME280;60387;49.994;14.660;2023-07-29T01:43:48;97171.34;;;23.24;51.76
71915;BME280;60387;49.994;14.660;2023-07-29T01:46:21;97167.38;;;23.25;51.95
71915;BME280;60387;49.994;14.660;2023-07-29T01:48:54;97169.78;;;23.20;52.26
71915;BME280;60387;49.994;14.660;2023-07-29T01:51:28;97175.28;;;23.16;52.15
71915;BME280;60387;49.994;14.660;2023-07-29T01:54:01;97172.91;;;23.15;52.88
71915;BME280;60387;49.994;14.660;2023-07-29T01:56:34;97177.66;;;23.14;51.87
71915;BME280;60387;49.994;14.660;2023-07-29T01:59:08;97176.06;;;23.10;52.33
71915;BME280;60387;49.994;14.660;2023-07-29T02:01:41;97176.44;;;23.08;52.04
71915;BME280;60387;49.994;14.660;2023-07-29T02:04:14;97183.56;;;23.09;52.09
71915;BME280;60387;49.994;14.660;2023-07-29T02:06:47;97181.16;;;23.04;51.80
71915;BME280;60387;49.994;14.660;2023-07-29T02:09:21;97170.53;;;23.03;52.36
71915;BME280;60387;49.994;14.660;2023-07-29T02:11:54;97173.28;;;22.99;52.36
71915;BME280;60387;49.994;14.660;2023-07-29T02:14:27;97186.31;;;23.06;52.57
71915;BME280;60387;49.994;14.660;2023-07-29T02:17:00;97176.44;;;23.05;52.24
71915;BME280;60387;49.994;14.660;2023-07-29T02:19:34;97176.44;;;23.08;52.15
71915;BME280;60387;49.994;14.660;2023-07-29T02:22:07;97183.56;;;23.09;52.59
71915;BME280;60387;49.994;14.660;2023-07-29T02:24:40;97189.88;;;23.10;52.95
71915;BME280;60387;49.994;14.660;2023-07-29T02:27:14;97175.66;;;23.08;52.24
71915;BME280;60387;49.994;14.660;2023-07-29T02:29:47;97166.59;;;23.07;52.79
71915;BME280;60387;49.994;14.660;2023-07-29T02:32:21;97187.50;;;23.08;52.45
71915;BME280;60387;49.994;14.660;2023-07-29T02:34:54;97170.13;;;23.08;52.27
71915;BME280;60387;49.994;14.660;2023-07-29T02:37:28;97172.88;;;23.08;52.53
71915;BME280;60387;49.994;14.660;2023-07-29T02:40:01;97174.47;;;23.05;52.85
71915;BME280;60387;49.994;14.660;2023-07-29T02:42:34;97167.34;;;23.04;52.31
71915;BME280;60387;49.994;14.660;2023-07-29T02:45:08;97168.53;;;23.03;53.21
71915;BME280;60387;49.994;14.660;2023-07-29T02:47:41;97169.34;;;23.07;52.96
71915;BME280;60387;49.994;14.660;2023-07-29T02:50:14;97156.72;;;22.99;53.91
71915;BME280;60387;49.994;14.660;2023-07-29T02:52:48;97172.50;;;23.06;53.43
71915;BME280;60387;49.994;14.660;2023-07-29T02:55:21;97171.31;;;23.03;53.70
71915;BME280;60387;49.994;14.660;2023-07-29T02:57:54;97179.22;;;23.05;53.16
71915;BME280;60387;49.994;14.660;2023-07-29T03:00:31;97176.44;;;23.05;53.60
71915;BME280;60387;49.994;14.660;2023-07-29T03:03:04;97174.88;;;23.04;54.13
71915;BME280;60387;49.994;14.660;2023-07-29T03:05:37;97176.06;;;22.99;53.49
71915;BME280;60387;49.994;14.660;2023-07-29T03:08:11;97181.59;;;22.99;53.78
71915;BME280;60387;49.994;14.660;2023-07-29T03:10:44;97181.97;;;22.98;53.23
71915;BME280;60387;49.994;14.660;2023-07-29T03:13:17;97181.97;;;22.98;53.37
71915;BME280;60387;49.994;14.660;2023-07-29T03:15:51;97189.88;;;22.99;53.66
71915;BME280;60387;49.994;14.660;2023-07-29T03:18:24;97185.91;;;23.00;53.63
71915;BME280;60387;49.994;14.660;2023-07-29T03:20:57;97181.19;;;22.97;53.48
71915;BME280;60387;49.994;14.660;2023-07-29T03:23:31;97186.31;;;22.99;52.69
71915;BME280;60387;49.994;14.660;2023-07-29T03:26:05;97174.88;;;22.97;53.09
71915;BME280;60387;49.994;14.660;2023-07-29T03:28:42;97172.91;;;22.94;53.34
71915;BME280;60387;49.994;14.660;2023-07-29T03:31:16;97181.19;;;22.97;53.47
71915;BME280;60387;49.994;14.660;2023-07-29T03:33:49;97184.34;;;22.96;53.38
71915;BME280;60387;49.994;14.660;2023-07-29T03:36:22;97182.34;;;22.96;53.30
71915;BME280;60387;49.994;14.660;2023-07-29T03:38:55;97193.81;;;22.98;53.23
71915;BME280;60387;49.994;14.660;2023-07-29T03:41:29;97189.88;;;22.96;53.90
71915;BME280;60387;49.994;14.660;2023-07-29T03:44:02;97179.59;;;22.96;52.96
71915;BME280;60387;49.994;14.660;2023-07-29T03:46:35;97181.19;;;22.94;53.30
71915;BME280;60387;49.994;14.660;2023-07-29T03:49:09;97183.16;;;22.93;53.33
71915;BME280;60387;49.994;14.660;2023-07-29T03:51:42;97178.00;;;22.95;54.08
71915;BME280;60387;49.994;14.660;2023-07-29T03:54:15;97171.72;;;22.91;53.53
71915;BME280;60387;49.994;14.660;2023-07-29T03:56:48;97174.47;;;22.91;53.52
71915;BME280;60387;49.994;14.660;2023-07-29T03:59:22;97178.03;;;23.02;52.98
71915;BME280;60387;49.994;14.660;2023-07-29T04:01:55;97173.28;;;23.13;53.01
71915;BME280;60387;49.994;14.660;2023-07-29T04:04:28;97170.97;;;23.19;53.12
71915;BME280;60387;49.994;14.660;2023-07-29T04:07:01;97175.69;;;23.32;52.71
71915;BME280;60387;49.994;14.660;2023-07-29T04:09:35;97177.16;;;23.78;52.92
71915;BME280;60387;49.994;14.660;2023-07-29T04:12:08;97187.19;;;24.41;52.13
71915;BME280;60387;49.994;14.660;2023-07-29T04:14:41;97188.06;;;24.96;51.38
71915;BME280;60387;49.994;14.660;2023-07-29T04:17:15;97188.34;;;25.59;50.82
71915;BME280;60387;49.994;14.660;2023-07-29T04:19:48;97188.97;;;26.11;50.15
71915;BME280;60387;49.994;14.660;2023-07-29T04:22:21;97199.84;;;26.32;48.98
71915;BME280;60387;49.994;14.660;2023-07-29T04:24:55;97194.81;;;26.20;48.99
71915;BME280;60387;49.994;14.660;2023-07-29T04:27:28;97201.91;;;25.91;48.80
71915;BME280;60387;49.994;14.660;2023-07-29T04:30:01;97201.38;;;25.62;49.10
71915;BME280;60387;49.994;14.660;2023-07-29T04:32:34;97196.88;;;25.35;49.52
71915;BME280;60387;49.994;14.660;2023-07-29T04:35:08;97198.25;;;25.13;49.69
71915;BME280;60387;49.994;14.660;2023-07-29T04:37:42;97193.25;;;24.94;49.89
71915;BME280;60387;49.994;14.660;2023-07-29T04:40:15;97199.69;;;24.80;49.88
71915;BME280;60387;49.994;14.660;2023-07-29T04:42:49;97198.16;;;24.69;50.34
71915;BME280;60387;49.994;14.660;2023-07-29T04:45:22;97205.72;;;24.61;50.26
71915;BME280;60387;49.994;14.660;2023-07-29T04:47:57;97208.13;;;24.56;50.39
71915;BME280;60387;49.994;14.660;2023-07-29T04:50:31;97216.03;;;24.50;50.54
71915;BME280;60387;49.994;14.660;2023-07-29T04:53:04;97216.03;;;24.47;50.48
71915;BME280;60387;49.994;14.660;2023-07-29T04:55:37;97210.94;;;24.42;50.54
71915;BME280;60387;49.994;14.660;2023-07-29T04:58:10;97206.19;;;24.39;51.22
71915;BME280;60387;49.994;14.660;2023-07-29T05:00:47;97210.97;;;24.35;50.84
71915;BME280;60387;49.994;14.660;2023-07-29T05:03:20;97212.16;;;24.34;50.46
71915;BME280;60387;49.994;14.660;2023-07-29T05:05:53;97210.19;;;24.34;51.10
71915;BME280;60387;49.994;14.660;2023-07-29T05:08:27;97207.38;;;24.45;51.08
71915;BME280;60387;49.994;14.660;2023-07-29T05:11:00;97213.97;;;24.72;50.94
71915;BME280;60387;49.994;14.660;2023-07-29T05:13:33;97227.13;;;25.15;50.93
71915;BME280;60387;49.994;14.660;2023-07-29T05:16:07;97223.16;;;25.67;50.68
71915;BME280;60387;49.994;14.660;2023-07-29T05:18:40;97207.94;;;26.19;50.12
71915;BME280;60387;49.994;14.660;2023-07-29T05:21:13;97218.81;;;26.70;49.30
71915;BME280;60387;49.994;14.660;2023-07-29T05:23:46;97215.38;;;27.16;49.08
71915;BME280;60387;49.994;14.660;2023-07-29T05:26:20;97223.38;;;27.59;47.90
71915;BME280;60387;49.994;14.660;2023-07-29T05:28:53;97224.69;;;27.97;47.44
71915;BME280;60387;49.994;14.660;2023-07-29T05:31:26;97220.09;;;28.30;46.00
71915;BME280;60387;49.994;14.660;2023-07-29T05:34:00;97217.94;;;28.57;44.78
71915;BME280;60387;49.994;14.660;2023-07-29T05:36:33;97210.69;;;28.79;45.22
71915;BME280;60387;49.994;14.660;2023-07-29T05:39:06;97208.66;;;28.99;45.19
71915;BME280;60387;49.994;14.660;2023-07-29T05:41:39;97221.69;;;29.21;44.71
71915;BME280;60387;49.994;14.660;2023-07-29T05:44:13;97214.34;;;29.43;43.48
71915;BME280;60387;49.994;14.660;2023-07-29T05:46:46;97221.00;;;29.65;44.00
71915;BME280;60387;49.994;14.660;2023-07-29T05:49:19;97217.41;;;29.81;42.37
71915;BME280;60387;49.994;14.660;2023-07-29T05:51:52;97216.03;;;30.01;42.59
71915;BME280;60387;49.994;14.660;2023-07-29T05:54:26;97217.78;;;30.11;41.40
71915;BME280;60387;49.994;14.660;2023-07-29T05:56:59;97219.34;;;30.12;42.16
71915;BME280;60387;49.994;14.660;2023-07-29T05:59:32;97231.44;;;30.09;42.26
71915;BME280;60387;49.994;14.660;2023-07-29T06:02:06;97226.00;;;30.02;41.50
71915;BME280;60387;49.994;14.660;2023-07-29T06:04:39;97220.63;;;29.95;42.79
71915;BME280;60387;49.994;14.660;2023-07-29T06:07:12;97223.22;;;29.86;41.60
71915;BME280;60387;49.994;14.660;2023-07-29T06:09:46;97226.03;;;29.86;43.13
71915;BME280;60387;49.994;14.660;2023-07-29T06:12:19;97225.59;;;29.88;42.55
71915;BME280;60387;49.994;14.660;2023-07-29T06:14:52;97216.44;;;29.87;41.09
71915;BME280;60387;49.994;14.660;2023-07-29T06:17:25;97217.50;;;29.77;41.43
71915;BME280;60387;49.994;14.660;2023-07-29T06:19:59;97218.88;;;29.69;41.56
71915;BME280;60387;49.994;14.660;2023-07-29T06:22:32;97218.31;;;29.62;42.11
71915;BME280;60387;49.994;14.660;2023-07-29T06:25:05;97220.91;;;29.69;42.50
71915;BME280;60387;49.994;14.660;2023-07-29T06:27:39;97221.88;;;29.78;41.18
71915;BME280;60387;49.994;14.660;2023-07-29T06:30:12;97217.56;;;29.90;41.17
71915;BME280;60387;49.994;14.660;2023-07-29T06:32:45;97215.81;;;29.96;42.06
71915;BME280;60387;49.994;14.660;2023-07-29T06:35:19;97219.81;;;30.11;41.53
71915;BME280;60387;49.994;14.660;2023-07-29T06:37:52;97221.25;;;30.31;41.88
71915;BME280;60387;49.994;14.660;2023-07-29T06:40:25;97207.19;;;30.47;41.95
71915;BME280;60387;49.994;14.660;2023-07-29T06:42:59;97214.03;;;30.59;41.16
71915;BME280;60387;49.994;14.660;2023-07-29T06:45:32;97207.28;;;30.72;40.16
71915;BME280;60387;49.994;14.660;2023-07-29T06:48:05;97200.13;;;30.96;40.62
71915;BME280;60387;49.994;14.660;2023-07-29T06:50:39;97198.69;;;31.29;40.69
71915;BME280;60387;49.994;14.660;2023-07-29T06:53:12;97199.53;;;31.63;39.20
71915;BME280;60387;49.994;14.660;2023-07-29T06:55:45;97195.69;;;31.82;38.31
71915;BME280;60387;49.994;14.660;2023-07-29T06:58:19;97191.16;;;31.97;37.19
71915;BME280;60387;49.994;14.660;2023-07-29T07:00:52;97200.41;;;32.07;37.70
71915;BME280;60387;49.994;14.660;2023-07-29T07:03:26;97207.13;;;32.22;36.13
71915;BME280;60387;49.994;14.660;2023-07-29T07:05:59;97198.19;;;32.36;37.57
71915;BME280;60387;49.994;14.660;2023-07-29T07:08:32;97204.38;;;32.52;35.38
71915;BME280;60387;49.994;14.660;2023-07-29T07:11:05;97211.22;;;32.73;34.98
71915;BME280;60387;49.994;14.660;2023-07-29T07:13:39;97203.56;;;32.95;35.18
71915;BME280;60387;49.994;14.660;2023-07-29T07:16:12;97205.66;;;33.12;34.37
71915;BME280;60387;49.994;14.660;2023-07-29T07:18:45;97198.88;;;33.31;34.61
71915;BME280;60387;49.994;14.660;2023-07-29T07:21:19;97209.41;;;33.49;35.30
71915;BME280;60387;49.994;14.660;2023-07-29T07:23:52;97212.16;;;33.79;34.04
71915;BME280;60387;49.994;14.660;2023-07-29T07:26:25;97206.09;;;34.08;34.36
71915;BME280;60387;49.994;14.660;2023-07-29T07:28:58;97203.63;;;34.28;33.97
71915;BME280;60387;49.994;14.660;2023-07-29T07:31:35;97212.53;;;34.44;32.08
71915;BME280;60387;49.994;14.660;2023-07-29T07:34:08;97198.13;;;34.33;33.33
71915;BME280;60387;49.994;14.660;2023-07-29T07:36:42;97216.75;;;34.31;33.04
71915;BME280;60387;49.994;14.660;2023-07-29T07:39:15;97209.22;;;34.19;33.30
71915;BME280;60387;49.994;14.660;2023-07-29T07:41:48;97196.88;;;33.98;32.38
71915;BME280;60387;49.994;14.660;2023-07-29T07:44:22;97200.16;;;33.79;33.52
71915;BME280;60387;49.994;14.660;2023-07-29T07:46:55;97200.03;;;33.52;33.66
71915;BME280;60387;49.994;14.660;2023-07-29T07:49:28;97194.66;;;33.27;34.44
71915;BME280;60387;49.994;14.660;2023-07-29T07:52:01;97202.84;;;33.12;34.53
71915;BME280;60387;49.994;14.660;2023-07-29T07:54:35;97198.00;;;33.04;34.56
71915;BME280;60387;49.994;14.660;2023-07-29T07:57:08;97184.38;;;32.93;34.09
71915;BME280;60387;49.994;14.660;2023-07-29T07:59:41;97188.44;;;32.92;34.40
71915;BME280;60387;49.994;14.660;2023-07-29T08:02:14;97163.75;;;32.87;34.37
71915;BME280;60387;49.994;14.660;2023-07-29T08:04:48;97175.50;;;32.95;34.87
71915;BME280;60387;49.994;14.660;2023-07-29T08:07:21;97158.72;;;33.13;33.97
71915;BME280;60387;49.994;14.660;2023-07-29T08:09:54;97154.38;;;33.21;33.06
71915;BME280;60387;49.994;14.660;2023-07-29T08:12:28;97164.19;;;33.16;33.19
71915;BME280;60387;49.994;14.660;2023-07-29T08:15:01;97150.66;;;32.84;33.39
71915;BME280;60387;49.994;14.660;2023-07-29T08:17:34;97178.13;;;32.68;34.30
71915;BME280;60387;49.994;14.660;2023-07-29T08:20:08;97165.19;;;32.70;34.71
71915;BME280;60387;49.994;14.660;2023-07-29T08:22:41;97170.13;;;32.79;34.46
71915;BME280;60387;49.994;14.660;2023-07-29T08:25:15;97163.41;;;32.76;33.91
71915;BME280;60387;49.994;14.660;2023-07-29T08:27:48;97162.19;;;32.86;34.13
71915;BME280;60387;49.994;14.660;2023-07-29T08:30:21;97156.47;;;32.99;34.45
71915;BME280;60387;49.994;14.660;2023-07-29T08:32:54;97139.97;;;33.10;33.90
71915;BME280;60387;49.994;14.660;2023-07-29T08:35:28;97148.03;;;33.38;32.91
71915;BME280;60387;49.994;14.660;2023-07-29T08:38:02;97160.28;;;33.62;33.52
71915;BME280;60387;49.994;14.660;2023-07-29T08:40:38;97167.34;;;33.85;33.56
71915;BME280;60387;49.994;14.660;2023-07-29T08:43:16;97157.34;;;34.20;32.90
71915;BME280;60387;49.994;14.660;2023-07-29T08:45:52;97163.25;;;34.58;31.67
71915;BME280;60387;49.994;14.660;2023-07-29T08:48:41;97167.25;;;34.93;32.25
71915;BME280;60387;49.994;14.660;2023-07-29T08:51:16;97171.38;;;35.15;30.20
71915;BME280;60387;49.994;14.660;2023-07-29T08:53:51;97164.34;;;35.20;30.87
71915;BME280;60387;49.994;14.660;2023-07-29T08:56:24;97165.63;;;35.10;30.80
71915;BME280;60387;49.994;14.660;2023-07-29T08:58:58;97174.97;;;35.16;30.99
71915;BME280;60387;49.994;14.660;2023-07-29T09:01:32;97160.28;;;35.12;29.96
71915;BME280;60387;49.994;14.660;2023-07-29T09:04:05;97161.53;;;35.20;30.79
71915;BME280;60387;49.994;14.660;2023-07-29T09:06:39;97161.59;;;35.34;30.15
71915;BME280;60387;49.994;14.660;2023-07-29T09:09:15;97162.28;;;35.52;30.73
71915;BME280;60387;49.994;14.660;2023-07-29T09:11:49;97156.47;;;35.79;30.95
71915;BME280;60387;49.994;14.660;2023-07-29T09:14:24;97144.41;;;36.02;30.16
71915;BME280;60387;49.994;14.660;2023-07-29T09:16:57;97145.88;;;36.12;29.75
71915;BME280;60387;49.994;14.660;2023-07-29T09:19:32;97150.72;;;36.12;29.11
71915;BME280;60387;49.994;14.660;2023-07-29T09:22:17;97156.63;;;35.99;29.61
71915;BME280;60387;49.994;14.660;2023-07-29T09:24:51;97152.03;;;35.87;30.07
71915;BME280;60387;49.994;14.660;2023-07-29T09:27:28;97160.63;;;35.69;29.68
71915;BME280;60387;49.994;14.660;2023-07-29T09:30:02;97150.84;;;35.56;30.51
71915;BME280;60387;49.994;14.660;2023-07-29T09:32:39;97157.97;;;35.42;30.61
71915;BME280;60387;49.994;14.660;2023-07-29T09:35:12;97166.16;;;35.31;29.47
71915;BME280;60387;49.994;14.660;2023-07-29T09:37:46;97163.22;;;35.17;30.06
71915;BME280;60387;49.994;14.660;2023-07-29T09:40:19;97162.50;;;35.08;30.08
71915;BME280;60387;49.994;14.660;2023-07-29T09:42:54;97159.63;;;35.17;29.96
71915;BME280;60387;49.994;14.660;2023-07-29T09:45:28;97160.09;;;35.47;30.75
71915;BME280;60387;49.994;14.660;2023-07-29T09:48:02;97155.50;;;35.82;30.12
71915;BME280;60387;49.994;14.660;2023-07-29T09:50:35;97155.59;;;36.11;30.61
71915;BME280;60387;49.994;14.660;2023-07-29T09:53:09;97161.69;;;36.33;28.96
71915;BME280;60387;49.994;14.660;2023-07-29T09:55:47;97154.91;;;36.40;29.74
71915;BME280;60387;49.994;14.660;2023-07-29T09:58:26;97140.38;;;36.32;28.88
71915;BME280;60387;49.994;14.660;2023-07-29T10:01:00;97155.94;;;36.42;27.30
71915;BME280;60387;49.994;14.660;2023-07-29T10:03:34;97162.28;;;36.37;28.11
71915;BME280;60387;49.994;14.660;2023-07-29T10:06:08;97149.81;;;36.29;28.78
71915;BME280;60387;49.994;14.660;2023-07-29T10:08:42;97155.94;;;36.28;27.78
71915;BME280;60387;49.994;14.660;2023-07-29T10:11:16;97149.50;;;36.13;27.84
71915;BME280;60387;49.994;14.660;2023-07-29T10:13:50;97154.13;;;36.01;28.52
71915;BME280;60387;49.994;14.660;2023-07-29T10:16:24;97152.94;;;35.93;28.72
71915;BME280;60387;49.994;14.660;2023-07-29T10:18:58;97152.50;;;35.86;29.02
71915;BME280;60387;49.994;14.660;2023-07-29T10:21:32;97147.19;;;35.88;28.88
71915;BME280;60387;49.994;14.660;2023-07-29T10:24:14;97134.84;;;36.00;28.68
71915;BME280;60387;49.994;14.660;2023-07-29T10:26:49;97135.44;;;36.04;29.14
71915;BME280;60387;49.994;14.660;2023-07-29T10:29:23;97128.25;;;36.03;29.58
71915;BME280;60387;49.994;14.660;2023-07-29T10:31:57;97132.03;;;36.00;28.90
71915;BME280;60387;49.994;14.660;2023-07-29T10:34:33;97134.56;;;35.98;28.50
71915;BME280;60387;49.994;14.660;2023-07-29T10:37:07;97122.78;;;35.99;28.76
71915;BME280;60387;49.994;14.660;2023-07-29T10:39:52;97127.47;;;36.02;28.62
71915;BME280;60387;49.994;14.660;2023-07-29T10:42:25;97123.56;;;36.00;28.73
71915;BME280;60387;49.994;14.660;2023-07-29T10:44:59;97116.09;;;35.97;28.42
71915;BME280;60387;49.994;14.660;2023-07-29T10:47:32;97108.03;;;36.04;28.55
71915;BME280;60387;49.994;14.660;2023-07-29T10:50:19;97106.22;;;36.45;28.88
71915;BME280;60387;49.994;14.660;2023-07-29T10:52:53;97097.19;;;36.70;27.01
71915;BME280;60387;49.994;14.660;2023-07-29T10:55:34;97097.75;;;36.88;27.50
71915;BME280;60387;49.994;14.660;2023-07-29T10:58:16;97099.97;;;37.13;26.82
71915;BME280;60387;49.994;14.660;2023-07-29T11:00:49;97077.16;;;37.37;27.63
71915;BME280;60387;49.994;14.660;2023-07-29T11:03:23;97098.91;;;37.65;26.53
71915;BME280;60387;49.994;14.660;2023-07-29T11:06:04;97092.13;;;37.57;26.03
71915;BME280;60387;49.994;14.660;2023-07-29T11:08:37;97078.66;;;37.32;25.29
71915;BME280;60387;49.994;14.660;2023-07-29T11:11:12;97081.16;;;36.96;26.58
71915;BME280;60387;49.994;14.660;2023-07-29T11:13:45;97082.00;;;36.67;26.98
71915;BME280;60387;49.994;14.660;2023-07-29T11:16:19;97077.72;;;36.43;26.64
71915;BME280;60387;49.994;14.660;2023-07-29T11:18:53;97061.91;;;36.07;27.22
71915;BME280;60387;49.994;14.660;2023-07-29T11:21:27;97068.53;;;35.90;27.63
71915;BME280;60387;49.994;14.660;2023-07-29T11:24:01;97078.50;;;35.76;28.24
71915;BME280;60387;49.994;14.660;2023-07-29T11:26:37;97082.41;;;35.55;27.85
71915;BME280;60387;49.994;14.660;2023-07-29T11:29:10;97083.38;;;35.29;28.26
71915;BME280;60387;49.994;14.660;2023-07-29T11:31:43;97092.50;;;34.92;29.52
71915;BME280;60387;49.994;14.660;2023-07-29T11:34:16;97109.50;;;34.47;30.46
71915;BME280;60387;49.994;14.660;2023-07-29T11:36:50;97119.25;;;34.01;31.14
71915;BME280;60387;49.994;14.660;2023-07-29T11:39:23;97143.41;;;33.53;32.61
71915;BME280;60387;49.994;14.660;2023-07-29T11:41:57;97152.53;;;32.87;32.87
71915;BME280;60387;49.994;14.660;2023-07-29T11:44:30;97163.34;;;32.03;32.12
71915;BME280;60387;49.994;14.660;2023-07-29T11:47:07;97150.88;;;31.23;33.06
71915;BME280;60387;49.994;14.660;2023-07-29T11:49:41;97163.94;;;30.52;34.37
71915;BME280;60387;49.994;14.660;2023-07-29T11:52:14;97139.81;;;29.88;35.46
71915;BME280;60387;49.994;14.660;2023-07-29T11:54:48;97133.25;;;29.34;36.25
71915;BME280;60387;49.994;14.660;2023-07-29T11:57:23;97132.53;;;28.82;38.22
71915;BME280;60387;49.994;14.660;2023-07-29T11:59:57;97129.84;;;28.43;37.36
71915;BME280;60387;49.994;14.660;2023-07-29T12:02:30;97123.44;;;28.07;39.09
71915;BME280;60387;49.994;14.660;2023-07-29T12:05:05;97111.41;;;27.71;38.50
71915;BME280;60387;49.994;14.660;2023-07-29T12:07:38;97107.75;;;27.55;38.66
71915;BME280;60387;49.994;14.660;2023-07-29T12:10:12;97107.19;;;27.44;39.63
71915;BME280;60387;49.994;14.660;2023-07-29T12:12:50;97107.66;;;27.39;38.64
71915;BME280;60387;49.994;14.660;2023-07-29T12:15:27;97105.69;;;27.39;40.23
71915;BME280;60387;49.994;14.660;2023-07-29T12:18:01;97098.59;;;27.35;40.16
71915;BME280;60387;49.994;14.660;2023-07-29T12:20:34;97092.31;;;27.31;40.37
71915;BME280;60387;49.994;14.660;2023-07-29T12:23:08;97088.09;;;27.23;40.12
71915;BME280;60387;49.994;14.660;2023-07-29T12:25:41;97097.59;;;27.26;40.24
71915;BME280;60387;49.994;14.660;2023-07-29T12:28:14;97092.31;;;27.31;40.34
71915;BME280;60387;49.994;14.660;2023-07-29T12:30:48;97098.59;;;27.35;39.95
71915;BME280;60387;49.994;14.660;2023-07-29T12:33:55;97098.03;;;27.43;40.45
71915;BME280;60387;49.994;14.660;2023-07-29T12:36:48;97099.97;;;27.46;41.16
71915;BME280;60387;49.994;14.660;2023-07-29T12:39:27;97087.63;;;27.47;40.98
71915;BME280;60387;49.994;14.660;2023-07-29T12:42:02;97091.63;;;27.46;39.96
71915;BME280;60387;49.994;14.660;2023-07-29T12:44:38;97087.63;;;27.47;40.73
71915;BME280;60387;49.994;14.660;2023-07-29T12:47:11;97080.88;;;27.48;41.76
71915;BME280;60387;49.994;14.660;2023-07-29T12:49:44;97069.28;;;27.50;42.28
71915;BME280;60387;49.994;14.660;2023-07-29T12:52:18;97077.34;;;27.44;41.93
71915;BME280;60387;49.994;14.660;2023-07-29T12:54:51;97076.06;;;27.49;41.79
71915;BME280;60387;49.994;14.660;2023-07-29T12:57:24;97085.31;;;27.65;41.11
71915;BME280;60387;49.994;14.660;2023-07-29T12:59:57;97083.31;;;27.85;41.42
71915;BME280;60387;49.994;14.660;2023-07-29T13:02:31;97087.22;;;28.07;42.98
71915;BME280;60387;49.994;14.660;2023-07-29T13:05:05;97082.91;;;28.22;41.94
71915;BME280;60387;49.994;14.660;2023-07-29T13:07:39;97089.16;;;28.46;42.37
71915;BME280;60387;49.994;14.660;2023-07-29T13:10:13;97083.53;;;28.65;41.32
71915;BME280;60387;49.994;14.660;2023-07-29T13:12:46;97079.13;;;28.84;42.02
71915;BME280;60387;49.994;14.660;2023-07-29T13:15:20;97079.91;;;29.00;41.70
71915;BME280;60387;49.994;14.660;2023-07-29T13:17:53;97068.06;;;29.12;41.75
71915;BME280;60387;49.994;14.660;2023-07-29T13:20:26;97076.94;;;29.23;41.23
71915;BME280;60387;49.994;14.660;2023-07-29T13:22:59;97069.41;;;29.36;41.75
71915;BME280;60387;49.994;14.660;2023-07-29T13:25:33;97066.59;;;29.52;41.47
71915;BME280;60387;49.994;14.660;2023-07-29T13:28:06;97048.13;;;29.71;41.51
71915;BME280;60387;49.994;14.660;2023-07-29T13:30:40;97042.69;;;29.92;41.69